Main page
METAR-TAF:

METAR-TAF

Airports :

El Palmer Airport

Santa Ana, El Salvador

latitude: 13-59N, longitude: 089-34W, elevation: 725 m

Current weather observation

The report was made 12 hours and 44 minutes ago, at 19:50 UTC
Wind 2 kt from the South/Southeast
Temperature 35°C
Humidity 42%
Pressure 1014 hPa
Visibility 10 km or more
no clouds below 1500 m and no cumulonimbus

METAR: MSSA 211950Z 15002KT CAVOK 35/20 Q1014 A2995

Time: 02:34 (08:34 UTC)


TAF: missing

Weather observations and forecasts of more than 4000 airports (METAR and TAF reports).

The available stations are represented by yellow and red dots on the map.

Hover mouse over dot to see the name of the station.

Then click to see weather observations and forecasts.

To change the map : click on the green buttons with a black cross to zoom in, on the green button with a dash to zoom out, or on the green arrows for adjacent maps.


METAR-TAF: